createdAt,value
2022-11-05T00:00:01.599Z,69.46493099307303
2022-11-05T00:15:02.296Z,67.46381332412386
2022-11-05T00:30:01.985Z,67.32024577368816
2022-11-05T00:45:01.692Z,68.06595729640854
2022-11-05T01:00:02.339Z,70.53069347819284
2022-11-05T01:15:02.054Z,68.05935003238687
2022-11-05T01:30:01.736Z,67.57993435124422
2022-11-05T01:45:02.383Z,67.3716962964739
2022-11-05T02:00:02.013Z,68.33462181124861
2022-11-05T02:15:01.689Z,67.93123385219953
2022-11-05T02:30:02.402Z,68.72241205520591
2022-11-05T02:45:02.025Z,68.45781946203499
2022-11-05T03:00:01.685Z,67.7494755869825
2022-11-05T03:15:02.369Z,67.47791211706064
2022-11-05T03:30:02.103Z,67.26150572775258
2022-11-05T03:45:01.814Z,67.24933976326245
2022-11-05T04:00:02.472Z,68.17696367845188
2022-11-05T04:15:02.084Z,67.8445344870381
2022-11-05T04:30:01.743Z,68.64621083797897
2022-11-05T04:45:02.397Z,69.02629281432519
2022-11-05T05:00:02.037Z,67.74355989776976
2022-11-05T05:15:01.690Z,68.65929815365021
2022-11-05T05:30:01.887Z,68.33012697833196
2022-11-05T05:45:02.559Z,67.84830950168747
2022-11-05T06:00:02.172Z,67.54919836128501
2022-11-05T06:15:01.825Z,67.53515769830707
2022-11-05T06:30:02.522Z,67.32634771349592
2022-11-05T06:45:02.185Z,67.19000766932105
2022-11-05T07:00:07.333Z,67.18862530682941
2022-11-05T07:15:01.655Z,67.34053285611797
2022-11-05T07:30:02.305Z,67.1445879055568
2022-11-05T07:45:01.998Z,67.10609542021626
2022-11-05T08:00:01.661Z,67.10448855724431
2022-11-05T08:15:02.330Z,68.64713684273384
2022-11-05T08:30:02.017Z,69.72557552339356
2022-11-05T08:45:01.703Z,71.84051114380023
2022-11-05T09:00:02.361Z,73.48230175108273
2022-11-05T09:15:02.031Z,76.04316054678168
2022-11-05T09:30:01.726Z,77.26700409785525
2022-11-05T09:45:02.380Z,77.61246118171901
2022-11-05T10:00:02.042Z,78.6866004350293
2022-11-05T10:15:01.714Z,78.39440385079301
2022-11-05T10:30:02.383Z,77.85498792780915
2022-11-05T10:45:02.087Z,77.62475102125019
2022-11-05T11:00:01.756Z,76.02323770758018
2022-11-05T11:15:02.406Z,75.79356261672629
2022-11-05T11:30:02.096Z,73.93183995383232
2022-11-05T11:45:01.788Z,72.53199436403484
2022-11-05T12:00:08.770Z,71.5694006070185
2022-11-05T12:15:02.184Z,70.11950825507921
2022-11-05T12:30:01.943Z,68.97608725024466
2022-11-05T12:45:01.678Z,68.2576584382851
2022-11-05T13:00:02.346Z,66.29636036522058
2022-11-05T13:15:01.985Z,65.76332882608952
2022-11-05T13:30:01.697Z,64.58017480967888
2022-11-05T13:45:02.297Z,64.89250948567529
2022-11-05T14:00:01.996Z,65.3289929983195
2022-11-05T14:15:01.756Z,65.52157761332236
2022-11-05T14:30:02.498Z,65.75715910183905
2022-11-05T14:45:02.143Z,65.44960749230566
2022-11-05T15:00:01.977Z,65.19514565438399
2022-11-05T15:15:01.790Z,65.05418694306076
2022-11-05T15:30:02.441Z,65.01349421730669
2022-11-05T15:45:02.134Z,65.14366039489316
2022-11-05T16:00:01.919Z,65.40231842462586
2022-11-05T16:15:01.564Z,65.17588672145604
2022-11-05T16:30:02.233Z,65.22242823184529
2022-11-05T16:45:01.900Z,65.34114290243332
2022-11-05T17:00:02.567Z,65.48931944797104
2022-11-05T17:15:02.215Z,65.84705758479065
2022-11-05T17:30:01.909Z,65.84554385243088
2022-11-05T17:45:02.553Z,66.07862961201418
2022-11-05T18:00:02.245Z,66.5759763518079
2022-11-05T18:15:01.918Z,66.93487229051901
2022-11-05T18:30:01.639Z,66.92268288172673
2022-11-05T18:45:02.290Z,67.16435012755264
2022-11-05T19:00:01.938Z,67.39358443501426
2022-11-05T19:15:02.951Z,67.82474974925134
2022-11-05T19:30:01.928Z,67.56842616555836
2022-11-05T19:45:23.038Z,67.29685123722872
2022-11-05T20:00:02.516Z,67.13709680809438
2022-11-05T20:15:02.217Z,67.22718478264767
2022-11-05T20:30:01.873Z,67.19589367782207
2022-11-05T20:45:02.536Z,67.5684019249551
2022-11-05T21:00:02.179Z,67.598987980164
2022-11-05T21:15:01.868Z,67.71811376738214
2022-11-05T21:30:02.514Z,67.99203353080142
2022-11-05T21:45:02.196Z,68.05967121421698
2022-11-05T22:00:01.884Z,68.08425399069706
2022-11-05T22:15:02.552Z,68.45492799751315
2022-11-05T22:30:02.246Z,68.58551739368666
2022-11-05T22:45:01.956Z,68.30763459739175
2022-11-05T23:00:01.755Z,68.58175205736549
2022-11-05T23:15:02.400Z,68.55422994284694
2022-11-05T23:30:02.059Z,68.62305137630015
2022-11-05T23:45:01.675Z,68.71251956140318
